Time;durP1;ratioP1;P1;durP2;ratioP2;P2;SDS_P1;SDS_P2;PMS_P1;PMS_P2;Temp;Humidity;BMP_temperature;BMP_pressure;BME280_temperature;BME280_humidity;BME280_pressure;Samples;Min_cycle;Max_cycle;Signal;HPM_P1;HPM_P2
2023/07/19 00:02:18;;;;;;;7.40;3.70;;;;;;;19.79;55.70;100294.66;106152;1257;60554;-66
2023/07/19 00:04:47;;;;;;;8.70;3.90;;;;;;;19.75;55.94;100295.61;106213;1251;63876;-65
2023/07/19 00:07:14;;;;;;;8.40;4.20;;;;;;;19.71;56.00;100292.17;106219;1250;61478;-68
2023/07/19 00:09:42;;;;;;;6.10;3.70;;;;;;;19.65;55.81;100293.41;106258;1251;63804;-71
2023/07/19 00:12:10;;;;;;;10.70;4.20;;;;;;;19.58;55.50;100295.23;106253;1256;60566;-68
2023/07/19 00:14:37;;;;;;;8.70;3.90;;;;;;;19.49;55.50;100294.95;106143;1255;60540;-68
2023/07/19 00:17:05;;;;;;;7.80;4.00;;;;;;;19.43;55.62;100294.49;106304;1250;64894;-68
2023/07/19 00:19:32;;;;;;;8.60;3.80;;;;;;;19.38;55.72;100295.05;106208;1254;61547;-69
2023/07/19 00:22:00;;;;;;;8.40;4.10;;;;;;;19.33;55.96;100291.80;106202;1255;63669;-72
2023/07/19 00:24:27;;;;;;;6.90;3.70;;;;;;;19.27;56.25;100286.75;106223;1251;60544;-70
2023/07/19 00:26:56;;;;;;;7.10;3.80;;;;;;;19.20;56.52;100286.17;105905;1251;60549;-69
2023/07/19 00:29:23;;;;;;;7.90;3.70;;;;;;;19.17;56.54;100285.81;105750;1257;65092;-72
2023/07/19 00:31:51;;;;;;;8.30;3.50;;;;;;;19.18;56.74;100283.58;106141;1253;61328;-71
2023/07/19 00:34:19;;;;;;;9.00;4.30;;;;;;;19.18;56.92;100282.74;105783;1254;63729;-73
2023/07/19 00:36:46;;;;;;;7.70;4.20;;;;;;;19.16;57.22;100286.50;106144;1251;60508;-72
2023/07/19 00:39:14;;;;;;;7.40;4.50;;;;;;;19.16;57.49;100290.39;106310;1252;59604;-71
2023/07/19 00:41:41;;;;;;;7.40;4.50;;;;;;;19.15;57.44;100295.83;105895;1257;64917;-56
2023/07/19 00:44:09;;;;;;;8.40;4.10;;;;;;;19.13;57.41;100300.10;105645;1254;60416;-56
2023/07/19 00:46:37;;;;;;;9.90;3.70;;;;;;;19.11;57.27;100304.06;105872;1251;64130;-59
2023/07/19 00:49:06;;;;;;;8.10;4.00;;;;;;;19.08;57.41;100304.13;105548;1251;60470;-56
2023/07/19 00:51:35;;;;;;;8.10;4.20;;;;;;;19.05;57.25;100300.36;105715;1254;60367;-56
2023/07/19 00:54:03;;;;;;;7.30;3.80;;;;;;;19.02;57.02;100303.34;105760;1255;72961;-58
2023/07/19 00:56:31;;;;;;;7.60;3.80;;;;;;;18.99;57.00;100305.17;105669;1253;60440;-57
2023/07/19 00:58:59;;;;;;;7.70;4.00;;;;;;;18.94;57.02;100304.98;105579;1251;63767;-56
2023/07/19 01:01:27;;;;;;;6.10;3.40;;;;;;;18.93;56.61;100301.44;105822;1253;60578;-64
2023/07/19 01:03:55;;;;;;;7.30;3.20;;;;;;;18.92;56.23;100307.16;106084;1252;60520;-63
2023/07/19 01:06:22;;;;;;;8.30;4.20;;;;;;;18.91;55.74;100305.20;105623;1257;65004;-65
2023/07/19 01:08:50;;;;;;;7.30;3.80;;;;;;;18.87;55.63;100303.54;105765;1254;60449;-65
2023/07/19 01:11:17;;;;;;;8.40;4.00;;;;;;;18.83;55.75;100304.32;105795;1257;62419;-66
2023/07/19 01:13:53;;;;;;;10.60;3.60;;;;;;;18.78;55.82;100300.85;105827;1261;60569;-65
2023/07/19 01:16:20;;;;;;;10.50;3.50;;;;;;;18.73;55.91;100297.08;106285;1251;60492;-66
2023/07/19 01:18:48;;;;;;;7.60;3.60;;;;;;;18.69;56.03;100291.39;106215;1251;63613;-69
2023/07/19 01:21:16;;;;;;;11.10;4.20;;;;;;;18.65;56.36;100294.28;106237;1252;61365;-66
2023/07/19 01:23:52;;;;;;;8.80;4.20;;;;;;;18.64;56.35;100292.52;106280;1251;63664;-66
2023/07/19 01:26:20;;;;;;;6.70;3.60;;;;;;;18.62;56.41;100287.70;106157;1253;61568;-64
2023/07/19 01:28:47;;;;;;;7.20;3.60;;;;;;;18.63;56.54;100282.50;106202;1257;60445;-70
2023/07/19 01:31:15;;;;;;;6.40;3.70;;;;;;;18.66;56.52;100283.34;106308;1252;64862;-69
2023/07/19 01:33:44;;;;;;;5.80;3.30;;;;;;;18.70;56.58;100285.38;105679;1252;61451;-71
2023/07/19 01:36:11;;;;;;;7.20;3.90;;;;;;;18.71;56.60;100283.31;105665;1255;62846;-71
2023/07/19 01:38:41;;;;;;;8.50;4.20;;;;;;;18.69;56.58;100282.42;105709;1251;60450;-72
2023/07/19 01:41:08;;;;;;;8.00;3.40;;;;;;;18.69;56.69;100281.10;105688;1254;60399;-59
2023/07/19 01:43:36;;;;;;;7.20;3.50;;;;;;;18.68;56.61;100282.31;105769;1252;64866;-70
2023/07/19 01:46:03;;;;;;;6.60;4.10;;;;;;;18.65;56.43;100283.33;105604;1254;61410;-72
2023/07/19 01:48:33;;;;;;;8.30;3.80;;;;;;;18.61;56.57;100278.79;105704;1251;63795;-74
2023/07/19 01:51:02;;;;;;;7.20;3.80;;;;;;;18.58;56.71;100281.08;105876;1251;60604;-73
2023/07/19 01:53:29;;;;;;;7.90;3.40;;;;;;;18.53;56.78;100281.80;105704;1251;60362;-71
2023/07/19 01:55:57;;;;;;;8.40;3.60;;;;;;;18.49;56.74;100279.88;106094;1253;66177;-71
2023/07/19 01:58:25;;;;;;;8.40;3.50;;;;;;;18.44;56.83;100278.27;105681;1251;61380;-71
2023/07/19 02:00:53;;;;;;;8.70;3.40;;;;;;;18.42;56.75;100275.65;105630;1252;62631;-71
2023/07/19 02:03:21;;;;;;;6.60;3.00;;;;;;;18.40;56.88;100274.34;105898;1251;60469;-72
2023/07/19 02:06:00;;;;;;;9.10;4.00;;;;;;;18.38;56.61;100276.58;105861;1251;60531;-72
2023/07/19 02:08:27;;;;;;;7.80;3.80;;;;;;;18.35;56.39;100275.16;105748;1251;63722;-72
2023/07/19 02:10:55;;;;;;;9.50;4.30;;;;;;;18.33;56.43;100277.20;106324;1254;61830;-70
2023/07/19 02:13:23;;;;;;;7.80;3.80;;;;;;;18.27;56.44;100278.90;105779;1254;64195;-70
2023/07/19 02:15:51;;;;;;;8.20;4.10;;;;;;;18.21;56.67;100277.02;105640;1251;60551;-69
2023/07/19 02:18:21;;;;;;;7.60;4.30;;;;;;;18.14;56.78;100278.44;105784;1254;60337;-60
2023/07/19 02:20:51;;;;;;;7.90;4.10;;;;;;;18.09;56.82;100281.04;105770;1256;64873;-59
2023/07/19 02:23:19;;;;;;;8.20;3.90;;;;;;;18.03;56.96;100279.94;105752;1250;61336;-70
2023/07/19 02:25:48;;;;;;;8.80;4.70;;;;;;;17.97;56.99;100278.30;105692;1254;63656;-73
2023/07/19 02:28:16;;;;;;;8.20;4.30;;;;;;;17.93;57.30;100280.25;105912;1250;60560;-73
2023/07/19 02:30:44;;;;;;;7.80;4.20;;;;;;;17.94;57.49;100278.91;105423;1251;60568;-71
2023/07/19 02:33:13;;;;;;;8.00;4.70;;;;;;;17.99;57.62;100277.50;105736;1254;73838;-71
2023/07/19 02:35:41;;;;;;;10.30;4.50;;;;;;;18.04;57.67;100281.45;105707;1251;60502;-70
2023/07/19 02:38:09;;;;;;;7.50;4.40;;;;;;;18.07;57.71;100280.21;105749;1251;63838;-70
2023/07/19 02:40:37;;;;;;;8.40;4.30;;;;;;;18.09;57.72;100278.91;105618;1254;60536;-71
2023/07/19 02:43:05;;;;;;;12.10;4.90;;;;;;;18.10;57.72;100278.07;105678;1250;60373;-73
2023/07/19 02:45:35;;;;;;;7.30;4.30;;;;;;;18.09;57.94;100276.08;105816;1251;65436;-70
2023/07/19 02:48:03;;;;;;;8.00;4.10;;;;;;;18.06;57.64;100277.47;105822;1253;60465;-69
2023/07/19 02:50:31;;;;;;;7.10;3.70;;;;;;;18.00;57.60;100279.16;105536;1251;64277;-68
2023/07/19 02:52:59;;;;;;;10.40;4.40;;;;;;;17.99;57.87;100276.10;105568;1251;60561;-67
2023/07/19 02:55:26;;;;;;;6.90;3.70;;;;;;;18.03;58.20;100280.08;105555;1257;60480;-58
2023/07/19 02:57:54;;;;;;;7.30;3.90;;;;;;;18.10;58.18;100278.78;105585;1254;64872;-56
2023/07/19 03:00:21;;;;;;;9.30;4.80;;;;;;;18.16;57.83;100280.95;105732;1256;61375;-56
2023/07/19 03:02:53;;;;;;;8.80;3.80;;;;;;;18.19;57.37;100282.11;105729;1254;63720;-58
2023/07/19 03:05:22;;;;;;;8.80;4.10;;;;;;;18.22;57.19;100280.64;105691;1251;60524;-69
2023/07/19 03:07:50;;;;;;;8.60;4.50;;;;;;;18.26;57.54;100278.41;105822;1251;60447;-72
2023/07/19 03:10:18;;;;;;;7.50;4.20;;;;;;;18.29;57.86;100275.75;105770;1251;64880;-71
2023/07/19 03:12:45;;;;;;;7.10;4.40;;;;;;;18.31;58.38;100277.62;105564;1251;60796;-73
2023/07/19 03:15:13;;;;;;;7.50;4.40;;;;;;;18.32;58.46;100276.60;107203;1254;63681;-74
2023/07/19 03:17:41;;;;;;;6.90;4.10;;;;;;;18.36;58.03;100277.59;105634;1251;60544;-69
2023/07/19 03:20:10;;;;;;;6.40;3.60;;;;;;;18.38;57.18;100280.30;105760;1251;60668;-70
2023/07/19 03:22:37;;;;;;;6.50;4.20;;;;;;;18.38;57.13;100280.17;105790;1250;65479;-71
2023/07/19 03:25:06;;;;;;;9.30;4.20;;;;;;;18.40;57.30;100276.97;105670;1256;61492;-73
2023/07/19 03:27:33;;;;;;;7.60;3.80;;;;;;;18.45;57.37;100279.40;105692;1251;63690;-71
2023/07/19 03:30:02;;;;;;;7.40;4.10;;;;;;;18.53;57.31;100284.30;105653;1251;60844;-73
2023/07/19 03:32:30;;;;;;;9.20;3.90;;;;;;;18.58;57.01;100286.56;105653;1257;60522;-75
2023/07/19 03:34:58;;;;;;;5.90;3.50;;;;;;;18.61;56.64;100288.71;105932;1251;63635;-71
2023/07/19 03:37:25;;;;;;;6.20;3.60;;;;;;;18.64;56.61;100283.23;105707;1251;60526;-69
2023/07/19 03:39:53;;;;;;;8.50;4.00;;;;;;;18.68;56.38;100280.30;105694;1250;63699;-71
2023/07/19 03:42:21;;;;;;;9.10;4.00;;;;;;;18.72;56.36;100283.42;105681;1251;60527;-59
2023/07/19 03:44:49;;;;;;;5.90;3.80;;;;;;;18.75;56.50;100285.67;105679;1251;60450;-69
2023/07/19 03:47:16;;;;;;;6.70;3.50;;;;;;;18.78;56.41;100283.45;105666;1252;64893;-70
2023/07/19 03:49:44;;;;;;;7.60;3.50;;;;;;;18.81;55.92;100281.27;105872;1250;61384;-68
2023/07/19 03:52:11;;;;;;;7.50;3.60;;;;;;;18.83;55.86;100275.71;105631;1254;63920;-72
2023/07/19 03:54:39;;;;;;;7.50;4.00;;;;;;;18.87;55.90;100273.55;105688;1254;60562;-55
2023/07/19 03:57:07;;;;;;;8.60;3.90;;;;;;;18.93;55.99;100273.34;105522;1251;60726;-57
2023/07/19 03:59:34;;;;;;;6.90;3.90;;;;;;;19.02;55.59;100275.02;105741;1254;72894;-61
2023/07/19 04:02:02;;;;;;;6.80;3.50;;;;;;;19.08;55.33;100279.23;105745;1254;60380;-59
2023/07/19 04:04:29;;;;;;;7.10;3.90;;;;;;;19.10;54.84;100275.38;105706;1251;63707;-59
2023/07/19 04:06:58;;;;;;;8.00;3.70;;;;;;;19.15;54.72;100271.88;105807;1251;60491;-71
2023/07/19 04:09:25;;;;;;;10.30;4.00;;;;;;;19.20;55.22;100273.75;105704;1254;60681;-72
2023/07/19 04:11:53;;;;;;;7.10;3.20;;;;;;;19.24;55.49;100277.31;105770;1251;64837;-71
2023/07/19 04:14:20;;;;;;;7.00;4.00;;;;;;;19.28;55.26;100279.14;105771;1250;60559;-71
2023/07/19 04:16:48;;;;;;;11.40;3.50;;;;;;;19.33;54.82;100271.60;105625;1251;64194;-70
2023/07/19 04:19:16;;;;;;;7.00;3.60;;;;;;;19.38;54.62;100267.36;105675;1253;60855;-74
2023/07/19 04:21:44;;;;;;;9.50;3.40;;;;;;;19.41;54.28;100272.27;105791;1251;60439;-68
2023/07/19 04:24:12;;;;;;;6.20;3.10;;;;;;;19.46;54.16;100271.71;105544;1251;64953;-70
2023/07/19 04:26:39;;;;;;;7.50;3.00;;;;;;;19.51;53.93;100271.33;105637;1251;62961;-71
2023/07/19 04:29:07;;;;;;;7.90;3.50;;;;;;;19.55;53.77;100276.68;105723;1251;63641;-70
2023/07/19 04:31:34;;;;;;;8.30;4.20;;;;;;;19.61;53.60;100277.63;105662;1251;60528;-71
2023/07/19 04:34:02;;;;;;;8.00;4.00;;;;;;;19.65;53.87;100274.27;105706;1252;60565;-72
2023/07/19 04:36:30;;;;;;;7.00;3.80;;;;;;;19.72;54.00;100275.43;105857;1251;64927;-73
2023/07/19 04:38:58;;;;;;;7.80;3.40;;;;;;;19.82;54.38;100278.63;105830;1254;61333;-71
2023/07/19 04:41:26;;;;;;;9.90;3.70;;;;;;;19.94;54.24;100276.11;105592;1251;62474;-70
2023/07/19 04:43:56;;;;;;;7.50;3.50;;;;;;;20.04;53.70;100274.62;105744;1251;60533;-73
2023/07/19 04:46:24;;;;;;;5.60;3.10;;;;;;;20.10;53.32;100276.13;105856;1255;61119;-64
2023/07/19 04:48:52;;;;;;;7.40;4.00;;;;;;;20.16;53.04;100280.22;105670;1251;65080;-63
2023/07/19 04:51:19;;;;;;;6.50;3.20;;;;;;;20.23;52.81;100281.00;105657;1256;60476;-62
2023/07/19 04:53:48;;;;;;;6.90;3.30;;;;;;;20.30;52.38;100280.33;106225;1251;63762;-62
2023/07/19 04:56:15;;;;;;;9.90;3.50;;;;;;;20.35;52.29;100276.40;105919;1255;60538;-62
2023/07/19 04:58:43;;;;;;;10.50;3.40;;;;;;;20.41;52.41;100272.84;105779;1250;63672;-64
2023/07/19 05:01:11;;;;;;;9.10;3.50;;;;;;;20.47;52.01;100269.98;105709;1250;73799;-64
2023/07/19 05:03:39;;;;;;;7.30;3.30;;;;;;;20.52;51.78;100264.98;105969;1251;61301;-63
2023/07/19 05:06:07;;;;;;;6.70;3.60;;;;;;;20.58;51.53;100263.27;105595;1251;63763;-63
2023/07/19 05:08:37;;;;;;;7.30;3.70;;;;;;;20.64;51.55;100263.42;105647;1256;60551;-62
2023/07/19 05:11:05;;;;;;;8.40;3.30;;;;;;;20.71;51.60;100262.05;105747;1250;60509;-64
2023/07/19 05:13:33;;;;;;;6.60;3.50;;;;;;;20.76;51.32;100262.64;105748;1250;64912;-68
2023/07/19 05:16:01;;;;;;;7.90;3.50;;;;;;;20.82;51.37;100264.59;105738;1250;61440;-64
2023/07/19 05:18:29;;;;;;;6.70;3.40;;;;;;;20.89;51.17;100261.80;105716;1253;63678;-63
2023/07/19 05:20:57;;;;;;;5.70;3.00;;;;;;;20.96;51.12;100265.68;105826;1250;61594;-63
2023/07/19 05:23:26;;;;;;;8.70;3.80;;;;;;;21.05;51.24;100266.23;106049;1250;60559;-61
2023/07/19 05:25:53;;;;;;;6.40;3.40;;;;;;;21.14;51.11;100267.05;105748;1251;63626;-62
2023/07/19 05:28:21;;;;;;;7.80;2.70;;;;;;;21.22;50.78;100269.73;105816;1254;61581;-62
2023/07/19 05:30:48;;;;;;;6.90;3.20;;;;;;;21.31;50.85;100269.52;105624;1251;63723;-66
2023/07/19 05:33:16;;;;;;;6.10;3.10;;;;;;;21.41;50.61;100270.15;105698;1257;60548;-66
2023/07/19 05:35:47;;;;;;;8.30;3.40;;;;;;;21.51;50.19;100267.14;105802;1250;60561;-62
2023/07/19 05:38:15;;;;;;;10.80;3.20;;;;;;;21.59;49.47;100269.29;105720;1251;65005;-57
2023/07/19 05:40:42;;;;;;;9.40;3.20;;;;;;;21.67;49.26;100267.02;105906;1250;61363;-56
2023/07/19 05:43:10;;;;;;;5.50;2.90;;;;;;;21.74;49.48;100265.42;105698;1252;63702;-56
2023/07/19 05:45:37;;;;;;;6.80;2.60;;;;;;;21.82;49.01;100265.33;105671;1254;60556;-61
2023/07/19 05:48:05;;;;;;;5.70;2.90;;;;;;;21.91;48.12;100267.05;105870;1254;60401;-58
2023/07/19 05:50:33;;;;;;;5.50;2.70;;;;;;;21.98;48.00;100266.13;105709;1250;64032;-59
2023/07/19 05:53:00;;;;;;;6.50;2.80;;;;;;;22.06;47.80;100263.48;105588;1254;60829;-55
2023/07/19 05:55:27;;;;;;;5.50;2.80;;;;;;;22.14;47.77;100258.59;105972;1251;63764;-58
2023/07/19 05:57:55;;;;;;;4.70;2.10;;;;;;;22.24;48.05;100255.20;105662;1250;60502;-56
2023/07/19 06:00:28;;;;;;;5.20;2.40;;;;;;;22.33;47.40;100257.88;105570;1250;60561;-56
2023/07/19 06:02:56;;;;;;;5.80;2.60;;;;;;;22.42;46.10;100258.23;106016;1249;65093;-58
2023/07/19 06:05:24;;;;;;;5.60;2.70;;;;;;;22.47;45.77;100254.98;105916;1254;60470;-59
2023/07/19 06:07:52;;;;;;;5.50;2.40;;;;;;;22.53;45.62;100253.50;105665;1251;63741;-59
2023/07/19 06:10:20;;;;;;;4.50;2.10;;;;;;;22.57;45.61;100255.48;105692;1256;60610;-59
2023/07/19 06:12:49;;;;;;;4.60;2.00;;;;;;;22.61;44.92;100250.05;105739;1251;60642;-58
2023/07/19 06:15:17;;;;;;;4.30;1.80;;;;;;;22.67;44.63;100248.27;105658;1250;65056;-59
2023/07/19 06:17:45;;;;;;;5.00;1.90;;;;;;;22.72;44.91;100249.23;105573;1250;61350;-59
2023/07/19 06:20:13;;;;;;;5.40;2.00;;;;;;;22.80;44.79;100250.68;105770;1251;63777;-58
2023/07/19 06:22:41;;;;;;;5.30;2.10;;;;;;;22.88;44.34;100242.66;105962;1251;60468;-58
2023/07/19 06:25:09;;;;;;;4.50;1.80;;;;;;;22.94;44.05;100238.70;105774;1250;60425;-56
2023/07/19 06:27:36;;;;;;;4.20;1.70;;;;;;;23.01;43.36;100237.81;106060;1251;65269;-57
2023/07/19 06:30:05;;;;;;;7.90;2.00;;;;;;;23.07;43.55;100232.55;105706;1251;61275;-56
2023/07/19 06:32:32;;;;;;;5.80;2.20;;;;;;;23.15;43.44;100231.64;107103;1251;64332;-57
2023/07/19 06:35:00;;;;;;;6.20;2.00;;;;;;;23.24;43.17;100226.13;105402;1251;287377;-57
2023/07/19 06:39:40;;;;;;;3.50;1.50;;;;;;;23.17;41.86;100216.51;102480;1292;601164;-58
2023/07/19 06:42:08;;;;;;;5.30;1.90;;;;;;;23.40;42.39;100215.84;104537;1271;59542;-58
2023/07/19 06:44:36;;;;;;;5.40;1.70;;;;;;;23.49;41.91;100212.96;104727;1266;59382;-57
2023/07/19 06:47:04;;;;;;;9.40;2.30;;;;;;;23.56;41.74;100209.71;108364;1266;63334;-57
2023/07/19 06:49:31;;;;;;;4.50;1.80;;;;;;;23.63;41.37;100208.60;108415;1265;61838;-60
2023/07/19 06:51:59;;;;;;;4.90;1.90;;;;;;;23.68;40.69;100204.09;108392;1265;72402;-56
2023/07/19 06:54:26;;;;;;;6.80;2.10;;;;;;;23.72;40.41;100203.70;105567;1267;193111;-59
2023/07/19 06:56:54;;;;;;;7.80;1.90;;;;;;;23.77;39.88;100206.86;104581;1263;59170;-57
2023/07/19 06:59:21;;;;;;;4.90;1.70;;;;;;;23.80;39.05;100207.34;104647;1264;63258;-57
2023/07/19 07:01:49;;;;;;;4.60;1.80;;;;;;;23.83;38.97;100201.06;104849;1263;61365;-57
2023/07/19 07:04:16;;;;;;;4.50;1.50;;;;;;;23.86;39.56;100198.58;104789;1264;66527;-58
2023/07/19 07:06:44;;;;;;;4.10;1.60;;;;;;;23.91;39.16;100199.55;104797;1264;59771;-57
2023/07/19 07:09:14;;;;;;;5.80;1.90;;;;;;;23.95;38.61;100198.19;104672;1263;59779;-57
2023/07/19 07:11:41;;;;;;;4.00;1.60;;;;;;;23.98;38.81;100187.14;104789;1263;64052;-57
2023/07/19 07:14:10;;;;;;;4.50;1.80;;;;;;;23.97;39.12;100186.32;104820;1263;61531;-54
2023/07/19 07:16:37;;;;;;;5.30;2.00;;;;;;;23.99;39.11;100180.48;104719;1266;63730;-58
2023/07/19 07:19:05;;;;;;;5.40;1.80;;;;;;;24.03;39.70;100173.88;104777;1266;60198;-57
2023/07/19 07:21:33;;;;;;;4.30;1.90;;;;;;;24.10;39.93;100173.46;104713;1269;59729;-57
2023/07/19 07:24:00;;;;;;;5.30;2.20;;;;;;;24.17;39.91;100171.27;104781;1263;62919;-57
2023/07/19 07:26:28;;;;;;;6.40;1.90;;;;;;;24.27;39.75;100165.45;104747;1264;61595;-56
2023/07/19 07:28:55;;;;;;;4.70;1.90;;;;;;;24.38;39.87;100168.64;104605;1264;63870;-60
2023/07/19 07:31:23;;;;;;;4.70;2.10;;;;;;;24.43;39.93;100171.73;104646;1266;59733;-58
2023/07/19 07:33:51;;;;;;;5.00;1.50;;;;;;;24.43;40.06;100171.12;104730;1263;59698;-58
2023/07/19 07:36:18;;;;;;;4.60;2.20;;;;;;;24.46;39.79;100174.27;105383;1264;64087;-57
2023/07/19 07:38:48;;;;;;;5.80;2.00;;;;;;;24.53;38.65;100173.68;104701;1263;61394;-57
2023/07/19 07:41:16;;;;;;;5.90;1.70;;;;;;;24.55;37.84;100166.56;105534;1263;63665;-58
2023/07/19 07:43:43;;;;;;;6.30;1.90;;;;;;;24.56;37.69;100167.05;104944;1269;59730;-59
2023/07/19 07:46:11;;;;;;;5.20;1.70;;;;;;;24.59;37.60;100165.62;104794;1264;59752;-57
2023/07/19 07:48:38;;;;;;;7.10;1.50;;;;;;;24.62;37.18;100159.77;104914;1265;64135;-58
2023/07/19 07:51:06;;;;;;;6.10;1.50;;;;;;;24.69;36.22;100161.52;105019;1260;61524;-58
2023/07/19 07:53:34;;;;;;;10.30;1.50;;;;;;;24.75;35.70;100161.14;104756;1261;63810;-59
2023/07/19 07:56:02;;;;;;;5.10;1.60;;;;;;;24.80;36.14;100172.10;104856;1260;59713;-58
2023/07/19 07:58:31;;;;;;;4.90;1.30;;;;;;;24.84;35.19;100173.02;104981;1265;59558;-58
2023/07/19 08:01:00;;;;;;;3.60;1.30;;;;;;;24.91;34.09;100182.01;104873;1259;62922;-55
2023/07/19 08:03:27;;;;;;;5.40;1.60;;;;;;;25.01;32.45;100180.88;105010;1265;60104;-57
2023/07/19 08:05:55;;;;;;;4.70;1.40;;;;;;;25.08;32.94;100172.52;105422;1260;63706;-58
2023/07/19 08:08:23;;;;;;;5.90;1.30;;;;;;;25.17;34.33;100174.81;104908;1265;59666;-57
2023/07/19 08:10:51;;;;;;;4.70;1.50;;;;;;;25.32;34.49;100176.08;104950;1261;59763;-60
2023/07/19 08:13:19;;;;;;;4.10;1.30;;;;;;;25.47;33.61;100174.58;105667;1260;62882;-56
2023/07/19 08:15:48;;;;;;;4.00;1.40;;;;;;;25.57;33.07;100166.78;104914;1265;60120;-60
2023/07/19 08:18:15;;;;;;;5.90;1.70;;;;;;;25.63;32.97;100169.09;104903;1262;63725;-58
2023/07/19 08:20:43;;;;;;;8.30;1.80;;;;;;;25.63;33.67;100172.55;104961;1262;59749;-55
2023/07/19 08:23:10;;;;;;;4.40;1.40;;;;;;;25.64;32.53;100170.64;104936;1260;59782;-57
2023/07/19 08:25:38;;;;;;;5.80;1.60;;;;;;;25.65;32.12;100170.54;104994;1260;64126;-57
2023/07/19 08:28:05;;;;;;;4.10;1.30;;;;;;;25.69;32.04;100175.83;105252;1257;61319;-57
2023/07/19 08:30:33;;;;;;;4.30;1.60;;;;;;;25.72;31.93;100174.18;105194;1256;62440;-56
2023/07/19 08:33:08;;;;;;;3.30;1.20;;;;;;;25.72;31.74;100170.75;105332;1256;59772;-57
2023/07/19 08:35:35;;;;;;;3.50;1.40;;;;;;;25.69;30.96;100172.82;105514;1259;59272;-56
2023/07/19 08:38:04;;;;;;;6.50;1.10;;;;;;;25.64;31.25;100172.79;105454;1257;64099;-58
2023/07/19 08:40:32;;;;;;;5.20;1.40;;;;;;;25.66;30.77;100166.21;105390;1256;60228;-55
2023/07/19 08:42:59;;;;;;;4.80;1.40;;;;;;;25.73;30.00;100165.48;104995;1257;63841;-57
2023/07/19 08:45:27;;;;;;;4.50;1.10;;;;;;;25.85;30.84;100161.98;105002;1257;59580;-57
2023/07/19 08:47:54;;;;;;;4.60;1.50;;;;;;;26.01;31.01;100160.36;105017;1256;59758;-58
2023/07/19 08:50:23;;;;;;;3.40;1.00;;;;;;;26.15;30.51;100157.13;105321;1254;64140;-58
2023/07/19 08:52:50;;;;;;;6.20;1.20;;;;;;;26.24;30.79;100163.54;105435;1257;61563;-57
2023/07/19 08:55:18;;;;;;;6.90;1.40;;;;;;;26.28;30.78;100159.05;105110;1257;63761;-57
2023/07/19 08:57:46;;;;;;;2.80;1.10;;;;;;;26.22;30.83;100156.04;105180;1256;59710;-56
2023/07/19 09:00:17;;;;;;;3.60;1.20;;;;;;;26.13;31.59;100161.27;105250;1260;60059;-59
2023/07/19 09:02:45;;;;;;;4.30;1.20;;;;;;;26.03;31.61;100162.95;105490;1255;62874;-59
2023/07/19 09:05:13;;;;;;;7.20;1.40;;;;;;;25.88;30.84;100158.67;105367;1260;61426;-59
2023/07/19 09:07:41;;;;;;;4.80;1.80;;;;;;;25.79;31.01;100154.23;105721;1257;62526;-58
2023/07/19 09:10:09;;;;;;;3.80;1.60;;;;;;;25.78;30.33;100151.23;105334;1256;59687;-58
2023/07/19 09:12:38;;;;;;;4.60;1.80;;;;;;;25.77;30.61;100144.75;105500;1256;59720;-56
2023/07/19 09:15:10;;;;;;;3.60;1.10;;;;;;;25.76;31.02;100140.95;105478;1260;64074;-57
2023/07/19 09:17:42;;;;;;;3.40;1.30;;;;;;;25.75;31.84;100136.50;105460;1257;70275;-53
2023/07/19 09:20:10;;;;;;;3.70;1.30;;;;;;;25.78;31.99;100130.06;105413;1260;63889;-58
2023/07/19 09:22:38;;;;;;;7.10;1.20;;;;;;;25.87;32.24;100119.16;105230;1257;59672;-60
2023/07/19 09:25:09;;;;;;;6.80;1.50;;;;;;;25.99;32.29;100118.95;105402;1260;59628;-55
2023/07/19 09:27:36;;;;;;;3.50;1.40;;;;;;;26.12;31.42;100118.64;105902;1257;64140;-58
2023/07/19 09:30:08;;;;;;;4.00;1.20;;;;;;;26.23;31.06;100110.59;105184;1261;60889;-57
2023/07/19 09:32:37;;;;;;;4.20;1.20;;;;;;;26.30;30.72;100101.87;105294;1256;63685;-57
2023/07/19 09:35:05;;;;;;;5.40;1.80;;;;;;;26.33;31.10;100098.21;105306;1259;59682;-59
2023/07/19 09:37:33;;;;;;;4.40;1.30;;;;;;;26.33;31.51;100098.92;105412;1256;59823;-60
2023/07/19 09:40:02;;;;;;;7.20;1.60;;;;;;;26.28;31.26;100097.84;105363;1257;62850;-61
2023/07/19 09:42:31;;;;;;;4.30;1.50;;;;;;;26.19;31.47;100099.65;105412;1256;61852;-59
2023/07/19 09:45:00;;;;;;;2.70;1.20;;;;;;;26.14;31.76;100099.06;105362;1257;63755;-59
2023/07/19 09:47:28;;;;;;;3.60;1.50;;;;;;;26.17;31.45;100099.35;105312;1261;59726;-61
2023/07/19 09:49:57;;;;;;;4.30;1.70;;;;;;;26.22;31.37;100091.38;105276;1257;59717;-62
2023/07/19 09:52:25;;;;;;;4.00;1.60;;;;;;;26.29;31.57;100088.80;105264;1256;64077;-62
2023/07/19 09:54:53;;;;;;;3.50;1.60;;;;;;;26.37;31.04;100098.52;105223;1262;60364;-60
2023/07/19 09:57:24;;;;;;;3.90;1.40;;;;;;;26.42;31.48;100090.45;105283;1257;62433;-59
2023/07/19 09:59:51;;;;;;;4.80;1.70;;;;;;;26.47;30.75;100096.55;105144;1257;59997;-60
2023/07/19 10:02:21;;;;;;;4.50;1.40;;;;;;;26.45;30.30;100086.25;105125;1264;61218;-57
2023/07/19 10:04:50;;;;;;;5.60;1.30;;;;;;;26.42;30.53;100078.42;105158;1263;64122;-59
2023/07/19 10:07:20;;;;;;;5.70;1.50;;;;;;;26.43;32.02;100088.95;105247;1256;61381;-60
2023/07/19 10:09:49;;;;;;;6.00;1.80;;;;;;;26.45;32.05;100084.38;105275;1257;63868;-60
2023/07/19 10:12:17;;;;;;;7.20;1.70;;;;;;;26.52;31.74;100076.80;105347;1257;59829;-63
2023/07/19 10:15:01;;;;;;;6.20;1.50;;;;;;;26.61;32.21;100073.86;105241;1262;59636;-59
2023/07/19 10:17:29;;;;;;;3.30;1.10;;;;;;;26.74;31.62;100078.38;105185;1260;64128;-59
2023/07/19 10:20:03;;;;;;;5.20;1.50;;;;;;;26.83;30.70;100070.91;105232;1257;61409;-59
2023/07/19 10:22:50;;;;;;;3.70;1.40;;;;;;;26.89;30.51;100061.91;105041;1261;63726;-59
2023/07/19 10:25:22;;;;;;;4.30;1.50;;;;;;;26.96;30.89;100060.85;105590;1260;59663;-60
2023/07/19 10:28:09;;;;;;;3.00;1.30;;;;;;;27.01;30.57;100060.27;105107;1260;59558;-59
2023/07/19 10:30:46;;;;;;;3.30;1.20;;;;;;;27.02;30.63;100062.18;105224;1260;64147;-62
2023/07/19 10:33:15;;;;;;;4.00;1.20;;;;;;;26.99;30.10;100057.73;105167;1254;61361;-59
2023/07/19 10:35:43;;;;;;;3.10;1.20;;;;;;;26.94;29.44;100056.14;105371;1261;63750;-59
2023/07/19 10:38:20;;;;;;;6.40;1.60;;;;;;;26.88;29.86;100053.09;105302;1257;59727;-61
2023/07/19 10:40:58;;;;;;;2.30;1.10;;;;;;;26.83;29.46;100058.82;105334;1257;59726;-61
2023/07/19 10:43:26;;;;;;;3.10;1.20;;;;;;;26.81;29.52;100056.99;105295;1258;64146;-60
2023/07/19 10:46:13;;;;;;;5.30;1.70;;;;;;;26.82;29.22;100051.67;105307;1260;60147;-60
2023/07/19 10:48:41;;;;;;;5.80;1.70;;;;;;;26.85;29.68;100049.58;105085;1259;63834;-61
2023/07/19 10:51:10;;;;;;;3.70;1.30;;;;;;;26.95;30.12;100044.64;105075;1260;60573;-49
2023/07/19 10:53:58;;;;;;;6.80;1.50;;;;;;;27.11;30.63;100044.30;105402;1260;60419;-53
2023/07/19 10:56:27;;;;;;;4.60;1.20;;;;;;;27.28;30.06;100042.21;105415;1256;64864;-54
2023/07/19 10:58:58;;;;;;;3.70;1.30;;;;;;;27.34;29.21;100038.83;105323;1261;60438;-52
2023/07/19 11:01:28;;;;;;;3.70;1.10;;;;;;;27.29;29.21;100041.38;105353;1261;62608;-56
2023/07/19 11:04:04;;;;;;;4.50;1.10;;;;;;;27.19;29.17;100038.15;105190;1256;60487;-56
2023/07/19 11:06:33;;;;;;;3.80;1.40;;;;;;;27.14;29.60;100037.52;105222;1256;60553;-54
2023/07/19 11:09:08;;;;;;;3.90;1.40;;;;;;;27.17;29.91;100033.41;105294;1256;64951;-52
2023/07/19 11:11:37;;;;;;;2.70;1.10;;;;;;;27.17;29.54;100029.31;105527;1258;62185;-56
2023/07/19 11:14:05;;;;;;;8.90;1.20;;;;;;;27.12;29.29;100030.61;105163;1257;63666;-54
2023/07/19 11:16:33;;;;;;;3.00;1.10;;;;;;;27.12;29.54;100026.88;105328;1258;60614;-55
2023/07/19 11:19:01;;;;;;;12.80;1.30;;;;;;;27.18;29.66;100033.52;105424;1261;60383;-50
2023/07/19 11:21:29;;;;;;;5.60;1.50;;;;;;;27.23;29.54;100024.93;105138;1257;67289;-51
2023/07/19 11:23:56;;;;;;;4.80;1.30;;;;;;;27.30;29.58;100028.59;105062;1256;61311;-53
2023/07/19 11:26:23;;;;;;;4.80;1.40;;;;;;;27.38;29.24;100021.41;105331;1258;63675;-52